createdAt,value
2022-09-17T00:01:54.385Z,89.43
2022-09-17T00:04:23.638Z,90.14
2022-09-17T00:06:52.551Z,90.54
2022-09-17T00:09:21.582Z,92.10
2022-09-17T00:11:50.505Z,93.16
2022-09-17T00:14:19.929Z,92.70
2022-09-17T00:16:50.396Z,91.62
2022-09-17T00:19:23.083Z,92.19
2022-09-17T00:21:52.714Z,92.71
2022-09-17T00:24:22.967Z,91.72
2022-09-17T00:26:52.160Z,91.47
2022-09-17T00:29:21.564Z,90.29
2022-09-17T00:31:50.694Z,90.21
2022-09-17T00:34:21.119Z,89.85
2022-09-17T00:36:50.296Z,89.21
2022-09-17T00:39:19.243Z,89.07
2022-09-17T00:41:48.076Z,88.94
2022-09-17T00:44:49.723Z,88.95
2022-09-17T00:47:30.652Z,88.38
2022-09-17T00:50:07.233Z,88.09
2022-09-17T00:52:42.479Z,86.93
2022-09-17T00:55:20.679Z,87.14
2022-09-17T00:57:55.059Z,87.60
2022-09-17T01:00:24.911Z,87.88
2022-09-17T01:02:54.421Z,87.94
2022-09-17T01:05:34.899Z,88.00
2022-09-17T01:08:12.394Z,88.47
2022-09-17T01:11:12.094Z,88.67
2022-09-17T01:13:59.081Z,88.38
2022-09-17T01:16:34.467Z,88.48
2022-09-17T01:19:23.453Z,88.43
2022-09-17T01:22:04.939Z,88.92
2022-09-17T01:24:51.165Z,88.93
2022-09-17T01:28:08.869Z,88.62
2022-09-17T01:31:04.513Z,89.46
2022-09-17T01:33:43.562Z,88.85
2022-09-17T01:36:25.683Z,89.24
2022-09-17T01:39:03.290Z,89.43
2022-09-17T01:41:41.574Z,90.13
2022-09-17T01:44:16.779Z,90.21
2022-09-17T01:46:54.601Z,90.38
2022-09-17T01:49:26.082Z,91.00
2022-09-17T01:51:56.567Z,90.85
2022-09-17T01:54:29.353Z,90.77
2022-09-17T01:57:04.849Z,91.29
2022-09-17T01:59:39.133Z,92.05
2022-09-17T02:02:15.609Z,92.46
2022-09-17T02:04:56.953Z,92.22
2022-09-17T02:07:27.092Z,92.59
2022-09-17T02:10:01.691Z,93.17
2022-09-17T02:12:36.771Z,93.18
2022-09-17T02:15:11.553Z,93.51
2022-09-17T02:17:47.314Z,93.80
2022-09-17T02:20:22.185Z,93.89
2022-09-17T02:22:58.634Z,93.99
2022-09-17T02:25:32.735Z,93.98
2022-09-17T02:28:09.581Z,94.13
2022-09-17T02:30:38.712Z,93.79
2022-09-17T02:33:13.855Z,94.51
2022-09-17T02:35:43.698Z,94.69
2022-09-17T02:38:13.146Z,94.87
2022-09-17T02:40:49.016Z,95.35
2022-09-17T02:43:27.618Z,95.93
2022-09-17T02:46:12.077Z,96.07
2022-09-17T02:49:21.822Z,96.54
2022-09-17T02:52:04.672Z,96.44
2022-09-17T02:54:42.186Z,96.83
2022-09-17T02:57:21.583Z,97.81
2022-09-17T02:59:57.991Z,98.21
2022-09-17T03:02:33.273Z,97.92
2022-09-17T03:05:04.946Z,98.42
2022-09-17T03:07:34.188Z,98.69
2022-09-17T03:10:03.140Z,98.75
2022-09-17T03:12:32.142Z,98.41
2022-09-17T03:15:01.072Z,98.42
2022-09-17T03:17:29.937Z,98.64
2022-09-17T03:19:58.844Z,98.57
2022-09-17T03:22:29.343Z,98.75
2022-09-17T03:24:58.394Z,98.86
2022-09-17T03:27:27.213Z,99.32
2022-09-17T03:29:56.238Z,99.33
2022-09-17T03:32:25.403Z,99.22
2022-09-17T03:34:55.090Z,99.07
2022-09-17T03:37:24.037Z,99.46
2022-09-17T03:39:54.383Z,99.86
2022-09-17T03:42:23.453Z,100.00
2022-09-17T03:44:52.475Z,100.00
2022-09-17T03:47:21.511Z,100.00
2022-09-17T03:49:52.292Z,100.00
2022-09-17T03:52:21.284Z,100.00
2022-09-17T03:54:50.325Z,100.00
2022-09-17T03:57:20.669Z,100.00
2022-09-17T03:59:49.514Z,100.00
2022-09-17T04:02:18.618Z,100.00
2022-09-17T04:04:47.688Z,100.00
2022-09-17T04:07:16.567Z,100.00
2022-09-17T04:09:45.475Z,100.00
2022-09-17T04:12:14.498Z,100.00
2022-09-17T04:14:45.199Z,100.00
2022-09-17T04:17:18.414Z,100.00
2022-09-17T04:19:47.400Z,100.00
2022-09-17T04:22:16.659Z,100.00
2022-09-17T04:24:45.818Z,100.00
2022-09-17T04:27:14.718Z,100.00
2022-09-17T04:29:45.101Z,100.00
2022-09-17T04:32:14.258Z,100.00
2022-09-17T04:34:43.538Z,100.00
2022-09-17T04:37:12.474Z,100.00
2022-09-17T04:39:41.454Z,100.00
2022-09-17T04:42:10.473Z,100.00
2022-09-17T04:44:41.718Z,100.00
2022-09-17T04:47:12.389Z,100.00
2022-09-17T04:49:42.941Z,100.00
2022-09-17T04:52:12.010Z,100.00
2022-09-17T04:54:41.073Z,100.00
2022-09-17T04:57:10.271Z,100.00
2022-09-17T04:59:39.325Z,100.00
2022-09-17T05:02:08.415Z,100.00
2022-09-17T05:04:39.020Z,100.00
2022-09-17T05:07:11.996Z,100.00
2022-09-17T05:09:44.460Z,100.00
2022-09-17T05:12:13.418Z,100.00
2022-09-17T05:14:42.296Z,100.00
2022-09-17T05:17:11.297Z,100.00
2022-09-17T05:19:44.014Z,100.00
2022-09-17T05:22:13.358Z,100.00
2022-09-17T05:24:44.860Z,100.00
2022-09-17T05:27:14.243Z,100.00
2022-09-17T05:29:43.410Z,100.00
2022-09-17T05:32:12.444Z,100.00
2022-09-17T05:34:42.918Z,100.00
2022-09-17T05:37:12.551Z,100.00
2022-09-17T05:39:41.658Z,100.00
2022-09-17T05:42:10.788Z,100.00
2022-09-17T05:44:39.906Z,100.00
2022-09-17T05:47:08.893Z,100.00
2022-09-17T05:49:38.012Z,100.00
2022-09-17T05:52:08.420Z,100.00
2022-09-17T05:54:37.517Z,100.00
2022-09-17T05:57:07.427Z,100.00
2022-09-17T05:59:36.654Z,100.00
2022-09-17T06:02:06.594Z,100.00
2022-09-17T06:04:35.652Z,100.00
2022-09-17T06:07:08.726Z,100.00
2022-09-17T06:09:40.687Z,100.00
2022-09-17T06:12:10.273Z,100.00
2022-09-17T06:14:43.695Z,100.00
2022-09-17T06:17:12.955Z,100.00
2022-09-17T06:19:42.071Z,100.00
2022-09-17T06:22:12.422Z,100.00
2022-09-17T06:24:41.487Z,100.00
2022-09-17T06:27:10.570Z,100.00
2022-09-17T06:29:40.537Z,100.00
2022-09-17T06:32:13.172Z,100.00
2022-09-17T06:34:42.484Z,100.00
2022-09-17T06:37:15.133Z,100.00
2022-09-17T06:39:46.088Z,100.00
2022-09-17T06:42:15.096Z,100.00
2022-09-17T06:44:43.897Z,100.00
2022-09-17T06:47:12.827Z,100.00
2022-09-17T06:49:46.795Z,99.57
2022-09-17T06:52:17.227Z,99.02
2022-09-17T06:54:46.198Z,98.19
2022-09-17T06:57:16.300Z,97.51
2022-09-17T06:59:46.765Z,97.99
2022-09-17T07:02:18.038Z,97.44
2022-09-17T07:04:56.759Z,97.78
2022-09-17T07:07:32.072Z,97.64
2022-09-17T07:10:02.789Z,97.22
2022-09-17T07:12:31.762Z,96.33
2022-09-17T07:15:00.728Z,97.62
2022-09-17T07:17:31.410Z,100.00
2022-09-17T07:20:07.412Z,99.44
2022-09-17T07:22:41.245Z,99.82
2022-09-17T07:25:11.081Z,100.00
2022-09-17T07:27:40.316Z,100.00
2022-09-17T07:30:10.619Z,100.00
2022-09-17T07:32:39.652Z,100.00
2022-09-17T07:35:09.127Z,100.00
2022-09-17T07:37:39.686Z,100.00
2022-09-17T07:40:10.130Z,100.00
2022-09-17T07:42:39.280Z,100.00
2022-09-17T07:45:10.074Z,100.00
2022-09-17T07:47:42.630Z,100.00
2022-09-17T07:50:11.784Z,100.00
2022-09-17T07:52:48.490Z,100.00
2022-09-17T07:55:17.973Z,100.00
2022-09-17T07:57:55.481Z,100.00
2022-09-17T08:00:24.620Z,100.00
2022-09-17T08:02:55.697Z,100.00
2022-09-17T08:05:25.842Z,100.00
2022-09-17T08:07:57.250Z,100.00
2022-09-17T08:10:27.213Z,100.00
2022-09-17T08:13:28.572Z,100.00
2022-09-17T08:16:06.567Z,100.00
2022-09-17T08:18:36.478Z,100.00
2022-09-17T08:21:07.388Z,100.00
2022-09-17T08:23:39.232Z,100.00
2022-09-17T08:26:14.059Z,100.00
2022-09-17T08:28:49.451Z,100.00
2022-09-17T08:31:20.266Z,100.00
2022-09-17T08:33:51.833Z,100.00
2022-09-17T08:36:22.803Z,100.00
2022-09-17T08:39:12.162Z,100.00
2022-09-17T08:42:06.659Z,100.00
2022-09-17T08:44:41.977Z,100.00
2022-09-17T08:47:22.403Z,100.00
2022-09-17T08:49:55.016Z,98.57
2022-09-17T08:53:05.252Z,97.18
2022-09-17T08:55:43.933Z,89.14
2022-09-17T08:58:52.422Z,91.77
2022-09-17T09:01:35.811Z,95.54
2022-09-17T09:04:53.828Z,98.33
2022-09-17T09:07:28.330Z,97.90
2022-09-17T09:10:12.394Z,98.95
2022-09-17T09:12:47.643Z,99.73
2022-09-17T09:15:36.106Z,100.00
2022-09-17T09:18:27.813Z,100.00
2022-09-17T09:21:22.212Z,97.43
2022-09-17T09:23:59.800Z,96.21
2022-09-17T09:26:45.903Z,93.92
2022-09-17T09:29:25.992Z,93.49
2022-09-17T09:32:17.043Z,90.64
2022-09-17T09:34:47.030Z,89.30
2022-09-17T09:37:21.092Z,91.97
2022-09-17T09:39:54.391Z,92.88
2022-09-17T09:42:32.420Z,93.22
2022-09-17T09:45:17.707Z,91.32
2022-09-17T09:48:05.456Z,88.56
2022-09-17T09:51:06.118Z,86.47
2022-09-17T09:53:54.450Z,84.30
2022-09-17T09:56:54.012Z,80.69
2022-09-17T09:59:30.520Z,77.94
2022-09-17T10:02:00.965Z,75.20
2022-09-17T10:04:38.419Z,77.51
2022-09-17T10:07:11.473Z,78.81
2022-09-17T10:09:52.964Z,76.62
2022-09-17T10:12:28.174Z,76.87
2022-09-17T10:15:26.786Z,76.43
2022-09-17T10:18:20.166Z,76.63
2022-09-17T10:21:00.446Z,75.12
2022-09-17T10:23:37.486Z,75.60
2022-09-17T10:26:06.682Z,76.27
2022-09-17T10:28:51.746Z,78.56
2022-09-17T10:31:21.003Z,85.50
2022-09-17T10:33:59.731Z,86.91
2022-09-17T10:36:42.352Z,88.75
2022-09-17T10:39:52.984Z,92.51
2022-09-17T10:42:29.424Z,95.76
2022-09-17T10:45:08.211Z,95.06
2022-09-17T10:48:13.431Z,93.63
2022-09-17T10:51:09.517Z,87.94
2022-09-17T10:57:31.182Z,88.98
2022-09-17T11:00:27.730Z,91.63
2022-09-17T11:03:41.554Z,93.44
2022-09-17T11:07:14.032Z,95.37
2022-09-17T11:09:54.715Z,96.38
2022-09-17T11:12:48.318Z,97.39
2022-09-17T11:15:36.925Z,99.58
2022-09-17T11:18:42.459Z,100.00
2022-09-17T11:21:40.966Z,100.00
2022-09-17T11:24:49.892Z,100.00
2022-09-17T11:27:37.710Z,100.00
2022-09-17T11:30:17.855Z,100.00
2022-09-17T11:33:22.010Z,95.30
2022-09-17T11:36:00.246Z,90.86
2022-09-17T11:38:40.566Z,92.61
2022-09-17T11:41:17.797Z,85.87
2022-09-17T11:43:53.606Z,84.89
2022-09-17T11:46:29.425Z,86.02
2022-09-17T11:49:06.520Z,85.81
2022-09-17T11:51:43.456Z,87.54
2022-09-17T11:54:26.286Z,85.77
2022-09-17T11:57:09.709Z,84.69
2022-09-17T11:59:48.020Z,82.48
2022-09-17T12:02:27.442Z,81.66
2022-09-17T12:05:05.063Z,81.44
2022-09-17T12:07:44.979Z,74.35
2022-09-17T12:10:39.008Z,71.87
2022-09-17T12:13:24.527Z,74.65
2022-09-17T12:16:05.794Z,74.84
2022-09-17T12:18:56.830Z,71.91
2022-09-17T12:21:35.088Z,71.24
2022-09-17T12:24:16.282Z,72.57
2022-09-17T12:27:14.448Z,75.69
2022-09-17T12:30:08.264Z,76.01
2022-09-17T12:32:58.763Z,75.16
2022-09-17T12:36:16.951Z,72.33
2022-09-17T12:39:16.325Z,69.75
2022-09-17T12:41:59.783Z,69.43
2022-09-17T12:45:09.081Z,70.11
2022-09-17T12:48:32.007Z,71.13
2022-09-17T12:51:23.123Z,73.51
2022-09-17T12:54:12.035Z,74.36
2022-09-17T12:56:58.079Z,75.29
2022-09-17T12:59:32.854Z,74.44
2022-09-17T13:02:38.348Z,73.62
2022-09-17T13:05:44.423Z,73.52
2022-09-17T13:08:50.396Z,73.48
2022-09-17T13:12:03.758Z,69.40
2022-09-17T13:15:06.852Z,66.71
2022-09-17T13:17:52.361Z,66.29
2022-09-17T13:20:45.748Z,66.13
2022-09-17T13:23:15.534Z,63.67
2022-09-17T13:25:55.848Z,64.49
2022-09-17T13:28:48.041Z,63.68
2022-09-17T13:31:51.119Z,63.51
2022-09-17T13:34:36.078Z,63.32
2022-09-17T13:37:21.923Z,64.74
2022-09-17T13:39:54.709Z,64.96
2022-09-17T13:42:29.013Z,63.51
2022-09-17T13:45:08.922Z,64.60
2022-09-17T13:47:52.456Z,65.60
2022-09-17T13:50:36.508Z,64.62
2022-09-17T13:53:19.632Z,65.63
2022-09-17T13:55:51.617Z,63.20
2022-09-17T13:58:27.961Z,64.50
2022-09-17T14:01:02.486Z,62.20
2022-09-17T14:04:06.834Z,62.88
2022-09-17T14:06:53.898Z,61.20
2022-09-17T14:09:39.220Z,63.04
2022-09-17T14:12:54.871Z,63.35
2022-09-17T14:16:05.650Z,63.75
2022-09-17T14:19:01.412Z,64.69
2022-09-17T14:21:35.421Z,65.72
2022-09-17T14:24:22.200Z,66.46
2022-09-17T14:27:08.272Z,68.00
2022-09-17T14:30:13.067Z,67.99
2022-09-17T14:32:57.713Z,69.99
2022-09-17T14:35:35.180Z,69.27
2022-09-17T14:38:12.408Z,68.40
2022-09-17T14:40:47.212Z,67.04
2022-09-17T14:43:28.697Z,68.36
2022-09-17T14:45:59.470Z,68.21
2022-09-17T14:48:37.325Z,67.71
2022-09-17T14:51:29.661Z,68.01
2022-09-17T14:54:25.043Z,66.53
2022-09-17T14:57:12.493Z,66.16
2022-09-17T15:00:01.644Z,65.45
2022-09-17T15:02:37.169Z,63.59
2022-09-17T15:05:31.535Z,65.19
2022-09-17T15:08:09.910Z,64.59
2022-09-17T15:10:49.713Z,62.79
2022-09-17T15:13:22.904Z,58.50
2022-09-17T15:16:03.174Z,53.88
2022-09-17T15:18:39.329Z,50.87
2022-09-17T15:21:31.687Z,49.76
2022-09-17T15:24:12.811Z,50.43
2022-09-17T15:27:30.681Z,48.53
2022-09-17T15:30:05.460Z,48.81
2022-09-17T15:32:36.232Z,47.33
2022-09-17T15:35:30.307Z,47.82
2022-09-17T15:41:22.198Z,49.08
2022-09-17T15:43:54.732Z,49.97
2022-09-17T15:46:35.295Z,50.60
2022-09-17T15:49:30.802Z,51.34
2022-09-17T15:52:40.778Z,52.10
2022-09-17T15:55:36.023Z,52.82
2022-09-17T15:58:20.740Z,54.23
2022-09-17T16:01:00.973Z,55.39
2022-09-17T16:04:19.131Z,56.16
2022-09-17T16:07:18.631Z,57.28
2022-09-17T16:09:55.244Z,57.07
2022-09-17T16:12:29.093Z,57.65
2022-09-17T16:15:00.874Z,57.71
2022-09-17T16:17:44.960Z,57.68
2022-09-17T16:20:22.207Z,58.31
2022-09-17T16:22:52.308Z,58.22
2022-09-17T16:25:25.035Z,58.55
2022-09-17T16:27:57.831Z,58.97
2022-09-17T16:30:27.612Z,59.06
2022-09-17T16:32:56.947Z,57.62
2022-09-17T16:35:28.516Z,56.89
2022-09-17T16:43:27.909Z,56.75
2022-09-17T16:46:46.469Z,58.31
2022-09-17T16:52:48.093Z,60.09
2022-09-17T16:56:03.806Z,61.21
2022-09-17T16:58:32.872Z,61.19
2022-09-17T17:01:11.951Z,61.54
2022-09-17T17:03:41.407Z,62.85
2022-09-17T17:06:17.589Z,63.69
2022-09-17T17:08:48.301Z,64.55
2022-09-17T17:11:17.704Z,64.84
2022-09-17T17:13:47.545Z,66.20
2022-09-17T17:16:17.689Z,66.42
2022-09-17T17:18:47.105Z,66.19
2022-09-17T17:21:16.753Z,66.33
2022-09-17T17:23:47.988Z,66.38
2022-09-17T17:26:17.513Z,66.35
2022-09-17T17:28:46.754Z,66.64
2022-09-17T17:31:15.446Z,66.23
2022-09-17T17:33:45.164Z,66.27
2022-09-17T17:36:14.512Z,66.54
2022-09-17T17:38:45.703Z,66.22
2022-09-17T17:41:18.230Z,65.77
2022-09-17T17:43:47.422Z,65.65
2022-09-17T17:46:39.864Z,66.26
2022-09-17T17:49:11.215Z,67.13
2022-09-17T17:51:52.470Z,67.71
2022-09-17T17:54:23.682Z,68.84
2022-09-17T18:00:16.468Z,69.88
2022-09-17T18:02:57.674Z,70.58
2022-09-17T18:05:29.691Z,70.52
2022-09-17T18:07:58.772Z,70.93
2022-09-17T18:11:12.277Z,70.75
2022-09-17T18:13:51.863Z,71.17
2022-09-17T18:16:50.146Z,71.51
2022-09-17T18:19:44.437Z,71.53
2022-09-17T18:22:15.623Z,72.27
2022-09-17T18:24:45.264Z,73.07
2022-09-17T18:27:16.315Z,73.44
2022-09-17T18:29:48.925Z,75.23
2022-09-17T18:32:17.966Z,75.64
2022-09-17T18:34:47.452Z,74.36
2022-09-17T18:37:42.863Z,71.73
2022-09-17T18:40:48.814Z,71.82
2022-09-17T18:43:30.672Z,71.18
2022-09-17T18:46:01.347Z,71.38
2022-09-17T18:48:36.368Z,71.68
2022-09-17T18:51:16.885Z,71.52
2022-09-17T18:53:51.334Z,71.80
2022-09-17T18:56:27.005Z,71.78
2022-09-17T18:58:57.881Z,71.81
2022-09-17T19:01:46.469Z,72.16
2022-09-17T19:04:15.531Z,71.84
2022-09-17T19:06:44.495Z,72.78
2022-09-17T19:09:16.236Z,74.08
2022-09-17T19:11:45.110Z,74.78
2022-09-17T19:14:13.986Z,75.14
2022-09-17T19:16:43.403Z,75.98
2022-09-17T19:19:14.064Z,76.35
2022-09-17T19:21:44.902Z,77.27
2022-09-17T19:24:14.215Z,78.96
2022-09-17T19:26:45.622Z,83.93
2022-09-17T19:29:16.615Z,86.65
2022-09-17T19:31:45.607Z,85.63
2022-09-17T19:34:19.363Z,85.55
2022-09-17T19:36:48.744Z,87.62
2022-09-17T19:39:17.988Z,88.15
2022-09-17T19:41:47.122Z,87.09
2022-09-17T19:44:16.406Z,88.61
2022-09-17T19:46:46.932Z,88.48
2022-09-17T19:49:17.477Z,90.35
2022-09-17T19:51:46.899Z,90.14
2022-09-17T19:54:16.039Z,90.05
2022-09-17T19:56:47.648Z,90.94
2022-09-17T19:59:19.520Z,89.68
2022-09-17T20:01:54.040Z,90.64
2022-09-17T20:04:24.779Z,90.61
2022-09-17T20:06:53.816Z,90.87
2022-09-17T20:09:25.351Z,91.51
2022-09-17T20:11:56.762Z,90.79
2022-09-17T20:14:27.789Z,90.23
2022-09-17T20:16:56.771Z,89.49
2022-09-17T20:19:30.069Z,89.43
2022-09-17T20:22:05.560Z,89.09
2022-09-17T20:24:35.168Z,89.71
2022-09-17T20:27:04.354Z,89.71
2022-09-17T20:29:33.485Z,89.80
2022-09-17T20:32:02.739Z,91.33
2022-09-17T20:34:33.892Z,91.37
2022-09-17T20:37:13.225Z,91.55
2022-09-17T20:39:43.023Z,90.69
2022-09-17T20:42:15.336Z,91.75
2022-09-17T20:44:44.663Z,91.16
2022-09-17T20:47:15.778Z,91.77
2022-09-17T20:49:46.461Z,91.58
2022-09-17T20:52:20.412Z,90.57
2022-09-17T20:54:50.020Z,90.71
2022-09-17T20:57:18.933Z,92.37
2022-09-17T20:59:53.332Z,93.96
2022-09-17T21:02:22.688Z,93.90
2022-09-17T21:04:53.810Z,94.74
2022-09-17T21:07:22.785Z,94.92
2022-09-17T21:09:51.692Z,94.07
2022-09-17T21:12:27.485Z,95.32
2022-09-17T21:14:56.882Z,98.96
2022-09-17T21:17:25.724Z,100.00
2022-09-17T21:19:56.125Z,100.00
2022-09-17T21:22:25.342Z,100.00
2022-09-17T21:24:54.590Z,100.00
2022-09-17T21:27:23.929Z,100.00
2022-09-17T21:29:52.875Z,100.00
2022-09-17T21:32:22.228Z,100.00
2022-09-17T21:34:56.239Z,100.00
2022-09-17T21:37:38.994Z,100.00
2022-09-17T21:40:09.555Z,100.00
2022-09-17T21:42:42.089Z,100.00
2022-09-17T21:45:12.103Z,100.00
2022-09-17T21:47:47.085Z,100.00
2022-09-17T21:50:41.118Z,100.00
2022-09-17T21:53:38.785Z,100.00
2022-09-17T21:56:23.084Z,100.00
2022-09-17T21:58:55.367Z,100.00
2022-09-17T22:01:27.508Z,100.00
2022-09-17T22:03:57.993Z,100.00
2022-09-17T22:06:29.368Z,100.00
2022-09-17T22:09:02.154Z,100.00
2022-09-17T22:11:33.131Z,100.00
2022-09-17T22:14:09.021Z,100.00
2022-09-17T22:16:40.702Z,100.00
2022-09-17T22:19:11.215Z,100.00
2022-09-17T22:21:42.867Z,100.00
2022-09-17T22:24:13.737Z,100.00
2022-09-17T22:26:45.208Z,100.00
2022-09-17T22:29:16.425Z,100.00
2022-09-17T22:31:46.680Z,100.00
2022-09-17T22:34:18.089Z,100.00
2022-09-17T22:36:47.239Z,100.00
2022-09-17T22:39:19.184Z,100.00
2022-09-17T22:41:49.412Z,100.00
2022-09-17T22:44:20.006Z,100.00
2022-09-17T22:46:51.468Z,100.00
2022-09-17T22:49:20.834Z,100.00
2022-09-17T22:51:49.723Z,100.00
2022-09-17T22:54:20.653Z,100.00
2022-09-17T22:56:50.213Z,100.00
2022-09-17T22:59:19.526Z,100.00
2022-09-17T23:01:48.686Z,100.00
2022-09-17T23:04:17.636Z,100.00
2022-09-17T23:06:46.688Z,100.00
2022-09-17T23:09:16.245Z,100.00
2022-09-17T23:11:46.607Z,100.00
2022-09-17T23:14:19.541Z,100.00
2022-09-17T23:16:49.645Z,100.00
2022-09-17T23:19:20.002Z,100.00
2022-09-17T23:21:49.213Z,100.00
2022-09-17T23:24:21.129Z,100.00
2022-09-17T23:26:51.809Z,100.00
2022-09-17T23:29:20.978Z,100.00
2022-09-17T23:31:50.157Z,100.00
2022-09-17T23:34:19.206Z,100.00
2022-09-17T23:36:48.720Z,100.00
2022-09-17T23:39:18.217Z,100.00
2022-09-17T23:41:48.342Z,100.00
2022-09-17T23:44:19.254Z,100.00
2022-09-17T23:46:48.823Z,100.00
2022-09-17T23:49:17.926Z,100.00
2022-09-17T23:51:46.955Z,100.00
2022-09-17T23:54:16.309Z,100.00
2022-09-17T23:56:45.400Z,100.00
2022-09-17T23:59:14.377Z,100.00
